createdAt,value
2022-12-06T00:01:14.598Z,18.02
2022-12-06T00:03:42.739Z,17.60
2022-12-06T00:06:12.230Z,15.40
2022-12-06T00:08:39.828Z,17.48
2022-12-06T00:11:12.952Z,16.88
2022-12-06T00:13:40.962Z,16.30
2022-12-06T00:16:10.848Z,17.42
2022-12-06T00:18:39.423Z,16.95
2022-12-06T00:21:13.840Z,14.95
2022-12-06T00:23:43.766Z,17.60
2022-12-06T00:26:11.046Z,17.50
2022-12-06T00:28:38.920Z,14.85
2022-12-06T00:31:08.657Z,14.88
2022-12-06T00:33:36.813Z,18.27
2022-12-06T00:36:06.706Z,15.80
2022-12-06T00:38:35.068Z,14.80
2022-12-06T00:41:04.959Z,14.25
2022-12-06T00:43:33.164Z,14.48
2022-12-06T00:46:00.707Z,14.57
2022-12-06T00:48:29.223Z,14.48
2022-12-06T00:50:56.264Z,13.88
2022-12-06T00:53:23.726Z,14.95
2022-12-06T00:55:51.362Z,13.38
2022-12-06T00:58:19.187Z,13.30
2022-12-06T01:00:47.157Z,14.10
2022-12-06T01:03:14.431Z,12.55
2022-12-06T01:05:46.903Z,14.75
2022-12-06T01:08:14.659Z,15.77
2022-12-06T01:10:43.097Z,13.70
2022-12-06T01:13:10.199Z,13.60
2022-12-06T01:15:37.957Z,14.15
2022-12-06T01:18:05.655Z,13.93
2022-12-06T01:20:32.684Z,13.55
2022-12-06T01:23:00.107Z,13.38
2022-12-06T01:25:29.549Z,13.75
2022-12-06T01:27:59.813Z,12.18
2022-12-06T01:30:26.945Z,12.52
2022-12-06T01:32:54.048Z,13.68
2022-12-06T01:35:21.103Z,13.85
2022-12-06T01:37:48.117Z,13.68
2022-12-06T01:40:15.204Z,11.38
2022-12-06T01:42:42.206Z,13.95
2022-12-06T01:45:10.415Z,12.43
2022-12-06T01:47:43.916Z,13.65
2022-12-06T01:50:23.481Z,12.70
2022-12-06T01:53:05.671Z,12.25
2022-12-06T01:55:37.475Z,12.80
2022-12-06T01:58:13.060Z,13.10
2022-12-06T02:00:40.139Z,12.13
2022-12-06T02:03:10.698Z,12.70
2022-12-06T02:08:10.080Z,13.02
2022-12-06T02:10:38.006Z,10.73
2022-12-06T02:13:06.608Z,11.30
2022-12-06T02:16:02.949Z,11.85
2022-12-06T02:19:09.243Z,12.52
2022-12-06T02:22:03.778Z,12.27
2022-12-06T02:24:58.815Z,11.50
2022-12-06T02:28:06.220Z,12.82
2022-12-06T02:30:45.484Z,11.07
2022-12-06T02:33:23.099Z,10.77
2022-12-06T02:36:02.888Z,10.80
2022-12-06T02:38:49.155Z,10.75
2022-12-06T02:41:39.019Z,9.90
2022-12-06T02:44:12.961Z,10.52
2022-12-06T02:46:41.622Z,10.70
2022-12-06T02:49:10.675Z,11.13
2022-12-06T02:51:38.973Z,9.75
2022-12-06T02:54:10.150Z,9.45
2022-12-06T02:56:37.382Z,9.57
2022-12-06T02:59:05.811Z,10.48
2022-12-06T03:01:41.580Z,11.45
2022-12-06T03:04:46.329Z,11.57
2022-12-06T03:07:43.024Z,10.10
2022-12-06T03:10:25.400Z,9.25
2022-12-06T03:13:16.615Z,11.35
2022-12-06T03:16:00.331Z,9.95
2022-12-06T03:18:47.964Z,9.27
2022-12-06T03:21:22.818Z,10.82
2022-12-06T03:23:51.580Z,9.55
2022-12-06T03:26:27.661Z,8.65
2022-12-06T03:28:58.107Z,9.88
2022-12-06T03:31:27.583Z,10.20
2022-12-06T03:34:01.211Z,10.68
2022-12-06T03:36:30.695Z,8.50
2022-12-06T03:39:03.365Z,11.05
2022-12-06T03:41:35.848Z,9.13
2022-12-06T03:44:03.028Z,9.00
2022-12-06T03:46:44.839Z,10.10
2022-12-06T03:49:24.786Z,8.60
2022-12-06T03:51:52.509Z,7.78
2022-12-06T03:54:19.632Z,10.25
2022-12-06T03:56:46.677Z,9.05
2022-12-06T03:59:13.785Z,8.93
2022-12-06T04:01:41.107Z,9.30
2022-12-06T04:04:09.605Z,8.57
2022-12-06T04:06:36.781Z,8.52
2022-12-06T04:09:23.974Z,8.02
2022-12-06T04:11:50.955Z,8.40
2022-12-06T04:14:18.783Z,8.20
2022-12-06T04:17:05.627Z,10.15
2022-12-06T04:19:32.882Z,9.38
2022-12-06T04:22:19.720Z,10.82
2022-12-06T04:24:47.568Z,11.25
2022-12-06T04:27:34.421Z,9.18
2022-12-06T04:30:21.364Z,8.38
2022-12-06T04:33:08.264Z,8.07
2022-12-06T04:35:56.153Z,7.97
2022-12-06T04:38:43.061Z,7.75
2022-12-06T04:41:11.657Z,8.13
2022-12-06T04:43:45.050Z,9.05
2022-12-06T04:46:15.799Z,7.65
2022-12-06T04:48:42.974Z,9.30
2022-12-06T04:51:13.126Z,9.63
2022-12-06T04:53:40.465Z,8.68
2022-12-06T04:56:07.494Z,9.02
2022-12-06T04:58:34.932Z,9.27
2022-12-06T05:01:02.191Z,7.78
2022-12-06T05:03:29.366Z,9.10
2022-12-06T05:05:56.561Z,9.30
2022-12-06T05:08:23.812Z,7.80
2022-12-06T05:10:51.233Z,8.68
2022-12-06T05:13:20.136Z,8.73
2022-12-06T05:15:58.518Z,8.88
2022-12-06T05:18:26.700Z,8.10
2022-12-06T05:21:07.419Z,7.82
2022-12-06T05:23:34.965Z,7.90
2022-12-06T05:26:04.820Z,7.55
2022-12-06T05:28:32.999Z,7.25
2022-12-06T05:31:00.030Z,8.10
2022-12-06T05:33:27.180Z,9.00
2022-12-06T05:35:54.697Z,10.45
2022-12-06T05:38:22.605Z,9.95
2022-12-06T05:40:50.555Z,10.55
2022-12-06T05:43:17.862Z,10.60
2022-12-06T05:45:45.041Z,15.65
2022-12-06T05:48:12.098Z,11.18
2022-12-06T05:50:39.104Z,9.98
2022-12-06T05:53:06.769Z,10.60
2022-12-06T05:55:33.817Z,10.57
2022-12-06T05:58:00.831Z,11.57
2022-12-06T06:00:27.871Z,11.68
2022-12-06T06:02:54.953Z,10.85
2022-12-06T06:05:22.986Z,10.88
2022-12-06T06:07:50.026Z,10.77
2022-12-06T06:10:17.848Z,10.65
2022-12-06T06:12:45.255Z,12.68
2022-12-06T06:15:13.230Z,11.32
2022-12-06T06:17:43.216Z,13.10
2022-12-06T06:20:13.990Z,12.18
2022-12-06T06:22:42.538Z,12.93
2022-12-06T06:25:10.738Z,11.65
2022-12-06T06:27:38.546Z,10.38
2022-12-06T06:30:08.457Z,11.85
2022-12-06T06:32:35.988Z,10.80
2022-12-06T06:35:03.560Z,9.95
2022-12-06T06:37:30.606Z,11.57
2022-12-06T06:39:59.065Z,13.68
2022-12-06T06:42:26.236Z,10.13
2022-12-06T06:44:54.888Z,11.07
2022-12-06T06:47:23.072Z,12.35
2022-12-06T06:49:50.584Z,10.73
2022-12-06T06:52:17.950Z,9.45
2022-12-06T06:54:45.005Z,8.55
2022-12-06T06:57:17.326Z,9.82
2022-12-06T06:59:45.734Z,9.85
2022-12-06T07:02:14.347Z,11.35
2022-12-06T07:04:42.521Z,9.43
2022-12-06T07:07:09.550Z,10.68
2022-12-06T07:09:37.174Z,9.48
2022-12-06T07:12:04.746Z,9.65
2022-12-06T07:14:32.268Z,9.63
2022-12-06T07:16:59.394Z,8.30
2022-12-06T07:19:26.426Z,8.60
2022-12-06T07:21:54.192Z,7.03
2022-12-06T07:24:21.429Z,12.07
2022-12-06T07:26:49.554Z,12.05
2022-12-06T07:29:16.590Z,8.63
2022-12-06T07:31:43.760Z,10.32
2022-12-06T07:34:10.916Z,8.43
2022-12-06T07:36:38.022Z,8.25
2022-12-06T07:39:10.136Z,6.07
2022-12-06T07:42:00.107Z,7.75
2022-12-06T07:44:47.042Z,7.95
2022-12-06T07:47:14.045Z,7.90
2022-12-06T07:49:41.192Z,6.55
2022-12-06T07:52:08.657Z,8.15
2022-12-06T07:54:35.706Z,10.30
2022-12-06T07:57:02.702Z,7.82
2022-12-06T07:59:29.743Z,7.47
2022-12-06T08:01:56.989Z,8.70
2022-12-06T08:04:24.386Z,8.32
2022-12-06T08:06:51.538Z,7.65
2022-12-06T08:09:18.618Z,8.85
2022-12-06T08:11:45.801Z,9.02
2022-12-06T08:14:14.627Z,16.85
2022-12-06T08:16:42.045Z,7.60
2022-12-06T08:19:09.304Z,8.23
2022-12-06T08:21:36.391Z,8.23
2022-12-06T08:24:04.308Z,6.63
2022-12-06T08:26:31.460Z,7.68
2022-12-06T08:29:01.894Z,7.00
2022-12-06T08:33:55.951Z,7.60
2022-12-06T08:36:24.728Z,7.53
2022-12-06T08:38:53.081Z,6.97
2022-12-06T08:41:41.018Z,7.47
2022-12-06T08:44:12.465Z,7.10
2022-12-06T08:46:40.430Z,6.97
2022-12-06T08:49:07.576Z,6.55
2022-12-06T08:51:36.280Z,5.85
2022-12-06T08:54:04.028Z,5.55
2022-12-06T08:56:31.148Z,5.22
2022-12-06T08:58:59.198Z,4.40
2022-12-06T09:01:35.740Z,7.30
2022-12-06T09:04:06.409Z,6.25
2022-12-06T09:06:33.561Z,7.72
2022-12-06T09:09:01.260Z,4.72
2022-12-06T09:11:28.407Z,5.15
2022-12-06T09:13:55.450Z,7.90
2022-12-06T09:16:24.160Z,4.03
2022-12-06T09:18:51.959Z,13.25
2022-12-06T09:21:24.572Z,6.32
2022-12-06T09:23:54.461Z,6.40
2022-12-06T09:26:21.508Z,4.75
2022-12-06T09:28:52.360Z,7.28
2022-12-06T09:31:20.077Z,5.55
2022-12-06T09:33:47.488Z,4.45
2022-12-06T09:36:24.051Z,5.90
2022-12-06T09:38:57.307Z,4.18
2022-12-06T09:41:45.215Z,4.78
2022-12-06T09:44:41.890Z,3.97
2022-12-06T09:47:27.404Z,5.72
2022-12-06T09:50:17.010Z,7.35
2022-12-06T09:53:24.581Z,5.07
2022-12-06T09:56:14.975Z,6.95
2022-12-06T09:58:58.036Z,10.27
2022-12-06T10:01:49.962Z,6.50
2022-12-06T10:04:47.029Z,5.20
2022-12-06T10:07:45.765Z,4.95
2022-12-06T10:10:32.763Z,5.60
2022-12-06T10:13:12.300Z,4.18
2022-12-06T10:16:08.745Z,7.80
2022-12-06T10:18:53.664Z,5.68
2022-12-06T10:21:56.381Z,4.60
2022-12-06T10:25:03.241Z,4.00
2022-12-06T10:27:39.078Z,4.55
2022-12-06T10:30:12.586Z,3.92
2022-12-06T10:32:53.521Z,5.10
2022-12-06T10:35:42.412Z,6.15
2022-12-06T10:38:39.966Z,3.88
2022-12-06T10:41:30.575Z,5.82
2022-12-06T10:44:12.677Z,5.47
2022-12-06T10:47:06.813Z,6.75
2022-12-06T10:49:52.970Z,5.03
2022-12-06T10:52:47.925Z,3.80
2022-12-06T10:55:26.675Z,9.25
2022-12-06T10:58:14.999Z,5.32
2022-12-06T11:00:55.299Z,6.32
2022-12-06T11:03:44.836Z,5.45
2022-12-06T11:06:33.803Z,6.22
2022-12-06T11:09:20.858Z,4.93
2022-12-06T11:11:50.575Z,4.28
2022-12-06T11:14:43.338Z,3.97
2022-12-06T11:17:22.962Z,8.18
2022-12-06T11:20:11.452Z,4.28
2022-12-06T11:22:50.511Z,4.68
2022-12-06T11:25:55.275Z,3.75
2022-12-06T11:28:44.681Z,5.50
2022-12-06T11:31:28.228Z,3.22
2022-12-06T11:33:56.753Z,4.07
2022-12-06T11:36:26.037Z,3.58
2022-12-06T11:38:53.356Z,3.88
2022-12-06T11:41:27.551Z,3.63
2022-12-06T11:43:56.480Z,3.50
2022-12-06T11:46:24.763Z,7.18
2022-12-06T11:48:52.633Z,3.13
2022-12-06T11:51:22.857Z,3.15
2022-12-06T11:54:23.186Z,2.50
2022-12-06T11:56:50.939Z,3.60
2022-12-06T11:59:25.468Z,3.38
2022-12-06T12:01:56.151Z,2.85
2022-12-06T12:04:30.371Z,4.80
2022-12-06T12:07:02.608Z,3.60
2022-12-06T12:09:50.792Z,3.13
2022-12-06T12:12:47.545Z,2.55
2022-12-06T12:15:18.753Z,4.38
2022-12-06T12:17:49.057Z,3.28
2022-12-06T12:20:24.338Z,6.88
2022-12-06T12:23:07.210Z,2.83
2022-12-06T12:25:36.634Z,4.10
2022-12-06T12:28:24.677Z,3.00
2022-12-06T12:31:00.490Z,2.70
2022-12-06T12:33:28.962Z,3.38
2022-12-06T12:36:25.207Z,3.92
2022-12-06T12:39:04.069Z,2.75
2022-12-06T12:41:39.558Z,3.15
2022-12-06T12:44:42.494Z,4.47
2022-12-06T12:47:20.833Z,5.25
2022-12-06T12:50:20.288Z,2.10
2022-12-06T12:52:47.756Z,2.23
2022-12-06T12:55:22.710Z,2.58
2022-12-06T12:57:57.433Z,2.53
2022-12-06T13:00:35.455Z,3.88
2022-12-06T13:03:28.586Z,2.20
2022-12-06T13:05:57.690Z,3.05
2022-12-06T13:08:31.592Z,2.78
2022-12-06T13:11:02.047Z,3.03
2022-12-06T13:13:47.984Z,3.20
2022-12-06T13:16:21.143Z,1.77
2022-12-06T13:18:52.874Z,2.40
2022-12-06T13:21:33.077Z,1.95
2022-12-06T13:24:26.611Z,7.55
2022-12-06T13:27:01.974Z,2.15
2022-12-06T13:29:37.203Z,3.85
2022-12-06T13:32:13.454Z,2.63
2022-12-06T13:34:48.896Z,1.70
2022-12-06T13:37:43.230Z,2.03
2022-12-06T13:40:38.573Z,2.38
2022-12-06T13:43:26.835Z,2.00
2022-12-06T13:46:15.132Z,2.70
2022-12-06T13:48:52.039Z,1.88
2022-12-06T13:51:42.585Z,2.42
2022-12-06T13:54:30.353Z,1.90
2022-12-06T13:56:59.440Z,6.47
2022-12-06T13:59:37.080Z,4.82
2022-12-06T14:02:44.526Z,1.65
2022-12-06T14:08:17.225Z,1.83
2022-12-06T14:10:44.352Z,1.40
2022-12-06T14:13:21.885Z,3.45
2022-12-06T14:15:51.902Z,1.60
2022-12-06T14:18:23.048Z,2.47
2022-12-06T14:20:53.509Z,2.13
2022-12-06T14:26:22.901Z,1.85
2022-12-06T14:28:51.614Z,3.35
2022-12-06T14:31:23.475Z,1.63
2022-12-06T14:33:52.810Z,5.35
2022-12-06T14:36:39.100Z,3.47
2022-12-06T14:39:18.327Z,3.83
2022-12-06T14:42:16.928Z,5.00
2022-12-06T14:45:01.821Z,3.88
2022-12-06T14:47:30.018Z,7.05
2022-12-06T14:50:18.999Z,3.22
2022-12-06T14:53:05.209Z,6.88
2022-12-06T14:55:38.728Z,5.88
2022-12-06T14:58:20.176Z,5.40
2022-12-06T15:01:01.252Z,6.53
2022-12-06T15:03:33.740Z,6.07
2022-12-06T15:06:23.716Z,5.07
2022-12-06T15:09:14.590Z,10.32
2022-12-06T15:12:03.379Z,4.85
2022-12-06T15:14:48.273Z,4.03
2022-12-06T15:17:19.315Z,9.40
2022-12-06T15:19:51.527Z,5.93
2022-12-06T15:22:25.781Z,6.85
2022-12-06T15:24:58.099Z,9.90
2022-12-06T15:27:28.056Z,5.72
2022-12-06T15:29:55.674Z,7.63
2022-12-06T15:32:24.952Z,3.47
2022-12-06T15:34:51.964Z,4.05
2022-12-06T15:37:39.259Z,6.15
2022-12-06T15:40:08.082Z,5.93
2022-12-06T15:42:36.131Z,9.05
2022-12-06T15:45:03.549Z,6.55
2022-12-06T15:47:31.504Z,5.50
2022-12-06T15:49:58.667Z,3.83
2022-12-06T15:52:26.862Z,9.15
2022-12-06T15:54:53.943Z,8.55
2022-12-06T15:57:21.006Z,6.18
2022-12-06T15:59:48.856Z,7.65
2022-12-06T16:02:18.430Z,8.18
2022-12-06T16:04:48.537Z,10.50
2022-12-06T16:07:19.018Z,6.22
2022-12-06T16:09:46.810Z,10.18
2022-12-06T16:12:13.834Z,7.78
2022-12-06T16:14:41.074Z,9.32
2022-12-06T16:17:08.360Z,14.90
2022-12-06T16:19:55.469Z,6.22
2022-12-06T16:22:42.404Z,16.77
2022-12-06T16:25:09.982Z,9.38
2022-12-06T16:27:36.975Z,5.15
2022-12-06T16:30:05.694Z,17.98
2022-12-06T16:32:33.336Z,14.88
2022-12-06T16:35:00.604Z,8.63
2022-12-06T16:37:27.972Z,8.65
2022-12-06T16:39:54.957Z,10.25
2022-12-06T16:42:22.789Z,10.10
2022-12-06T16:44:52.771Z,10.73
2022-12-06T16:49:48.448Z,12.63
2022-12-06T16:52:16.940Z,11.77
2022-12-06T16:54:44.395Z,11.65
2022-12-06T16:57:12.813Z,18.08
2022-12-06T16:59:40.661Z,14.23
2022-12-06T17:02:27.929Z,15.93
2022-12-06T17:04:56.920Z,18.17
2022-12-06T17:07:24.596Z,21.20
2022-12-06T17:09:51.689Z,21.55
2022-12-06T17:12:19.141Z,22.30
2022-12-06T17:14:46.738Z,16.45
2022-12-06T17:17:15.777Z,25.50
2022-12-06T17:19:43.643Z,22.73
2022-12-06T17:22:12.759Z,27.80
2022-12-06T17:24:42.160Z,21.80
2022-12-06T17:27:09.774Z,23.85
2022-12-06T17:29:37.269Z,24.70
2022-12-06T17:32:04.520Z,26.63
2022-12-06T17:34:31.696Z,18.90
2022-12-06T17:36:59.383Z,21.90
2022-12-06T17:39:26.948Z,26.33
2022-12-06T17:42:13.801Z,23.63
2022-12-06T17:44:40.811Z,25.30
2022-12-06T17:47:11.005Z,26.92
2022-12-06T17:49:38.564Z,24.05
2022-12-06T17:52:06.015Z,28.70
2022-12-06T17:54:33.174Z,29.55
2022-12-06T17:57:00.259Z,23.77
2022-12-06T17:59:30.376Z,25.02
2022-12-06T18:02:17.863Z,24.48
2022-12-06T18:04:47.591Z,25.13
2022-12-06T18:07:15.821Z,24.92
2022-12-06T18:09:42.917Z,25.23
2022-12-06T18:12:12.222Z,24.83
2022-12-06T18:14:39.365Z,22.63
2022-12-06T18:17:06.516Z,30.27
2022-12-06T18:19:34.130Z,24.60
2022-12-06T18:22:01.376Z,28.67
2022-12-06T18:24:33.592Z,22.80
2022-12-06T18:27:02.775Z,21.85
2022-12-06T18:29:30.015Z,23.35
2022-12-06T18:31:57.762Z,27.23
2022-12-06T18:34:25.021Z,28.10
2022-12-06T18:36:52.275Z,24.35
2022-12-06T18:39:26.631Z,25.90
2022-12-06T18:41:54.829Z,27.08
2022-12-06T18:44:22.327Z,25.35
2022-12-06T18:46:49.367Z,26.08
2022-12-06T18:49:16.493Z,25.67
2022-12-06T18:51:43.584Z,27.52
2022-12-06T18:54:13.766Z,27.83
2022-12-06T18:59:08.824Z,27.50
2022-12-06T19:01:38.823Z,26.05
2022-12-06T19:04:08.551Z,26.88
2022-12-06T19:06:38.045Z,27.53
2022-12-06T19:09:08.014Z,24.98
2022-12-06T19:11:40.227Z,26.70
2022-12-06T19:14:07.931Z,26.83
2022-12-06T19:16:40.833Z,23.90
2022-12-06T19:19:16.270Z,26.80
2022-12-06T19:21:48.257Z,27.80
2022-12-06T19:24:20.210Z,26.35
2022-12-06T19:26:48.953Z,25.58
2022-12-06T19:29:16.462Z,20.65
2022-12-06T19:31:44.172Z,28.23
2022-12-06T19:34:23.769Z,23.45
2022-12-06T19:36:52.550Z,28.00
2022-12-06T19:39:20.331Z,25.00
2022-12-06T19:42:07.478Z,24.98
2022-12-06T19:44:34.894Z,28.90
2022-12-06T19:47:02.258Z,26.38
2022-12-06T19:49:29.404Z,23.42
2022-12-06T19:51:56.467Z,28.17
2022-12-06T19:54:29.664Z,25.38
2022-12-06T19:56:58.564Z,25.90
2022-12-06T19:59:27.746Z,24.88
2022-12-06T20:01:58.233Z,23.45
2022-12-06T20:04:29.171Z,24.50
2022-12-06T20:06:56.685Z,24.48
2022-12-06T20:09:27.109Z,25.70
2022-12-06T20:12:01.497Z,25.65
2022-12-06T20:14:35.384Z,27.40
2022-12-06T20:17:04.595Z,23.48
2022-12-06T20:19:31.666Z,25.98
2022-12-06T20:21:58.735Z,22.08
2022-12-06T20:24:25.878Z,23.27
2022-12-06T20:26:54.799Z,23.85
2022-12-06T20:29:22.877Z,24.30
2022-12-06T20:31:51.437Z,26.38
2022-12-06T20:34:19.070Z,23.20
2022-12-06T20:36:46.377Z,26.15
2022-12-06T20:39:22.082Z,25.95
2022-12-06T20:41:49.864Z,26.30
2022-12-06T20:44:17.917Z,22.20
2022-12-06T20:46:45.632Z,23.70
2022-12-06T20:49:13.042Z,26.10
2022-12-06T20:51:40.262Z,25.10
2022-12-06T20:54:08.013Z,24.10
2022-12-06T20:56:39.218Z,27.65
2022-12-06T20:59:07.494Z,22.20
2022-12-06T21:01:37.143Z,25.60
2022-12-06T21:04:04.326Z,22.77
2022-12-06T21:06:31.675Z,21.85
2022-12-06T21:08:58.750Z,22.02
2022-12-06T21:11:26.380Z,27.08
2022-12-06T21:13:54.966Z,25.48
2022-12-06T21:16:27.927Z,22.02
2022-12-06T21:19:01.375Z,22.02
2022-12-06T21:21:31.401Z,23.35
2022-12-06T21:24:03.438Z,25.30
2022-12-06T21:26:31.575Z,23.38
2022-12-06T21:28:59.131Z,23.80
2022-12-06T21:31:28.857Z,23.00
2022-12-06T21:33:56.696Z,25.35
2022-12-06T21:36:24.145Z,23.13
2022-12-06T21:38:51.637Z,22.13
2022-12-06T21:41:19.214Z,24.00
2022-12-06T21:43:46.431Z,21.17
2022-12-06T21:46:19.944Z,22.00
2022-12-06T21:48:52.036Z,23.08
2022-12-06T21:51:19.859Z,22.10
2022-12-06T21:53:47.015Z,21.60
2022-12-06T21:56:19.355Z,22.15
2022-12-06T21:58:47.039Z,20.45
2022-12-06T22:01:17.022Z,25.13
2022-12-06T22:03:46.977Z,21.90
2022-12-06T22:06:14.117Z,23.35
2022-12-06T22:08:43.071Z,21.33
2022-12-06T22:11:16.721Z,23.77
2022-12-06T22:13:44.686Z,22.55
2022-12-06T22:16:13.622Z,19.77
2022-12-06T22:18:45.349Z,23.02
2022-12-06T22:21:15.968Z,23.23
2022-12-06T22:23:43.607Z,22.10
2022-12-06T22:26:14.477Z,26.17
2022-12-06T22:28:41.615Z,21.15
2022-12-06T22:31:15.248Z,25.63
2022-12-06T22:33:43.059Z,20.05
2022-12-06T22:36:11.455Z,18.73
2022-12-06T22:38:38.617Z,22.35
2022-12-06T22:41:06.701Z,21.70
2022-12-06T22:43:34.299Z,18.77
2022-12-06T22:46:13.300Z,20.33
2022-12-06T22:48:41.656Z,21.85
2022-12-06T22:51:19.614Z,19.08
2022-12-06T22:53:49.160Z,19.45
2022-12-06T22:56:16.268Z,20.58
2022-12-06T22:58:43.591Z,23.25
2022-12-06T23:01:19.365Z,19.90
2022-12-06T23:03:48.628Z,19.75
2022-12-06T23:06:17.259Z,19.17
2022-12-06T23:08:45.043Z,18.42
2022-12-06T23:11:18.355Z,19.13
2022-12-06T23:13:45.841Z,19.25
2022-12-06T23:16:21.888Z,17.92
2022-12-06T23:18:49.737Z,18.48
2022-12-06T23:21:25.141Z,18.95
2022-12-06T23:23:54.372Z,19.85
2022-12-06T23:26:31.033Z,18.17
2022-12-06T23:28:58.132Z,18.80
2022-12-06T23:31:27.783Z,17.30
2022-12-06T23:33:58.161Z,21.33
2022-12-06T23:36:28.392Z,16.92
2022-12-06T23:38:55.503Z,19.15
2022-12-06T23:41:25.752Z,20.33
2022-12-06T23:43:54.219Z,17.13
2022-12-06T23:46:23.853Z,17.90
2022-12-06T23:48:51.465Z,17.27
2022-12-06T23:51:21.439Z,17.55
2022-12-06T23:53:53.838Z,17.33
2022-12-06T23:56:21.964Z,17.27
2022-12-06T23:58:50.650Z,16.98
